Time;durP1;ratioP1;P1;durP2;ratioP2;P2;SDS_P1;SDS_P2;PMS_P1;PMS_P2;Temp;Humidity;BMP_temperature;BMP_pressure;BME280_temperature;BME280_humidity;BME280_pressure;Samples;Min_cycle;Max_cycle;Signal;HPM_P1;HPM_P2
2023/07/03 00:00:11;;;;;;;12.55;2.25;;;;;;;13.87;64.75;100327.53;5041556;28;20060;-44
2023/07/03 00:02:42;;;;;;;8.20;1.90;;;;;;;13.84;64.66;100315.19;5049204;28;20057;-44
2023/07/03 00:05:10;;;;;;;8.17;1.70;;;;;;;13.73;64.51;100313.41;5051473;28;20171;-45
2023/07/03 00:07:39;;;;;;;4.60;1.52;;;;;;;13.65;64.65;100318.09;5016329;28;20321;-45
2023/07/03 00:10:07;;;;;;;7.53;2.05;;;;;;;13.61;65.08;100311.66;5008274;28;20041;-45
2023/07/03 00:12:35;;;;;;;2.65;1.27;;;;;;;13.64;65.06;100304.53;5008853;28;20063;-46
2023/07/03 00:15:02;;;;;;;6.85;1.17;;;;;;;13.67;64.93;100304.59;5008537;28;20048;-48
2023/07/03 00:17:29;;;;;;;3.38;1.45;;;;;;;13.66;64.94;100308.53;5008497;28;20494;-45
2023/07/03 00:19:56;;;;;;;6.47;1.23;;;;;;;13.63;65.07;100312.09;5008882;28;21273;-45
2023/07/03 00:22:23;;;;;;;14.68;2.63;;;;;;;13.61;65.25;100305.31;5007893;28;20057;-48
2023/07/03 00:24:50;;;;;;;9.20;2.08;;;;;;;13.58;65.20;100301.28;5008362;28;20057;-48
2023/07/03 00:27:18;;;;;;;5.43;1.70;;;;;;;13.56;65.18;100311.19;5008658;28;20126;-45
2023/07/03 00:29:45;;;;;;;9.85;2.33;;;;;;;13.49;65.19;100297.19;5046678;28;20044;-44
2023/07/03 00:32:12;;;;;;;4.75;1.50;;;;;;;13.44;65.40;100298.31;5051526;28;20103;-45
2023/07/03 00:34:39;;;;;;;9.50;2.17;;;;;;;13.35;65.60;100298.56;5051338;28;20041;-44
2023/07/03 00:37:06;;;;;;;9.45;2.30;;;;;;;13.30;65.99;100300.88;5051268;28;20466;-45
2023/07/03 00:39:33;;;;;;;8.82;2.03;;;;;;;13.27;65.86;100304.41;5051034;28;20092;-44
2023/07/03 00:42:00;;;;;;;5.80;1.90;;;;;;;13.18;66.20;100299.13;5051297;28;20422;-44
2023/07/03 00:44:27;;;;;;;8.68;3.20;;;;;;;13.11;66.23;100293.44;5047103;28;20048;-45
2023/07/03 00:46:54;;;;;;;6.75;1.83;;;;;;;13.09;66.49;100290.22;5051033;28;20045;-45
2023/07/03 00:49:21;;;;;;;9.68;1.88;;;;;;;13.09;66.46;100283.88;5048784;28;20066;-45
2023/07/03 00:51:54;;;;;;;6.88;1.95;;;;;;;13.09;66.53;100283.88;5047790;28;20072;-44
2023/07/03 00:54:21;;;;;;;6.90;1.77;;;;;;;13.07;66.67;100280.66;5041485;28;20040;-48
2023/07/03 00:56:48;;;;;;;5.78;1.50;;;;;;;13.05;66.72;100277.44;5049179;28;20099;-44
2023/07/03 00:59:16;;;;;;;4.78;1.55;;;;;;;13.04;66.80;100281.38;5047887;28;20075;-44
2023/07/03 01:01:55;;;;;;;8.85;2.08;;;;;;;13.05;67.02;100277.44;5047902;28;20057;-44
2023/07/03 01:04:35;;;;;;;11.52;1.55;;;;;;;12.99;66.87;100273.34;5047721;28;20049;-44
2023/07/03 01:07:10;;;;;;;8.85;2.35;;;;;;;12.90;67.10;100281.13;5046387;28;20037;-45
2023/07/03 01:09:49;;;;;;;11.77;2.00;;;;;;;12.81;67.42;100275.84;5050852;28;20152;-45
2023/07/03 01:12:18;;;;;;;7.95;1.85;;;;;;;12.75;67.27;100277.34;5050785;28;20075;-44
2023/07/03 01:14:45;;;;;;;6.07;1.65;;;;;;;12.71;67.55;100280.03;5046408;28;20091;-46
2023/07/03 01:17:14;;;;;;;9.77;1.45;;;;;;;12.68;67.72;100283.56;5048343;28;20162;-45
2023/07/03 01:19:45;;;;;;;6.75;1.70;;;;;;;12.63;67.91;100271.94;5050769;28;20458;-45
2023/07/03 01:22:20;;;;;;;13.23;2.88;;;;;;;12.61;67.83;100269.56;5032651;28;20048;-45
2023/07/03 01:24:55;;;;;;;6.03;1.00;;;;;;;12.59;68.04;100266.34;5046775;28;20045;-44
2023/07/03 01:27:26;;;;;;;7.03;1.55;;;;;;;12.56;67.81;100278.19;5049825;28;20142;-44
2023/07/03 01:29:54;;;;;;;9.65;1.60;;;;;;;12.51;67.84;100270.16;5050349;28;20571;-45
2023/07/03 01:32:24;;;;;;;8.10;1.88;;;;;;;12.47;67.99;100277.63;5050696;28;20045;-44
2023/07/03 01:34:53;;;;;;;7.38;1.45;;;;;;;12.45;68.10;100274.41;5048767;28;20491;-46
2023/07/03 01:37:25;;;;;;;13.52;1.60;;;;;;;12.45;68.17;100259.72;5033256;28;20124;-45
2023/07/03 01:39:54;;;;;;;9.70;2.22;;;;;;;12.43;67.93;100243.44;5054259;28;20742;-46
2023/07/03 01:42:22;;;;;;;10.10;1.75;;;;;;;12.45;67.99;100243.88;5054083;28;20091;-44
2023/07/03 01:44:49;;;;;;;5.20;1.40;;;;;;;12.48;68.27;100248.69;5051674;28;20166;-45
2023/07/03 01:47:16;;;;;;;11.73;1.70;;;;;;;12.49;68.21;100244.75;5054225;28;20045;-46
2023/07/03 01:49:43;;;;;;;8.70;1.65;;;;;;;12.53;68.26;100253.94;5054134;28;20494;-44
2023/07/03 01:52:31;;;;;;;12.07;1.92;;;;;;;12.53;68.32;100253.94;5052908;28;20077;-45
2023/07/03 01:55:09;;;;;;;6.28;1.52;;;;;;;12.55;68.21;100261.91;5043343;28;20095;-44
2023/07/03 01:57:56;;;;;;;8.20;2.10;;;;;;;12.56;68.25;100252.41;5053310;28;20068;-47
2023/07/03 02:00:35;;;;;;;6.53;1.90;;;;;;;12.49;68.40;100253.09;5052929;28;20103;-47
2023/07/03 02:03:18;;;;;;;8.40;1.50;;;;;;;12.45;68.61;100254.19;5053533;28;20441;-44
2023/07/03 02:05:47;;;;;;;7.00;2.35;;;;;;;12.40;68.62;100251.72;5053945;28;20430;-46
2023/07/03 02:08:17;;;;;;;14.98;2.42;;;;;;;12.33;68.93;100257.13;5052015;28;20051;-44
2023/07/03 02:10:43;;;;;;;8.85;1.77;;;;;;;12.27;69.16;100245.53;5053763;28;20453;-47
2023/07/03 02:13:10;;;;;;;7.03;1.60;;;;;;;12.26;69.16;100235.59;5054396;28;20399;-45
2023/07/03 02:15:37;;;;;;;8.90;1.50;;;;;;;12.29;69.40;100237.63;5053428;28;20047;-44
2023/07/03 02:18:04;;;;;;;14.93;1.85;;;;;;;12.26;69.42;100238.38;5035840;28;20043;-44
2023/07/03 02:20:31;;;;;;;10.13;1.85;;;;;;;12.27;69.51;100233.63;5035704;28;20045;-45
2023/07/03 02:22:58;;;;;;;11.38;2.78;;;;;;;12.27;69.55;100231.66;5045555;28;20045;-47
2023/07/03 02:25:24;;;;;;;3.72;1.40;;;;;;;12.29;69.52;100239.59;5053432;28;20055;-44
2023/07/03 02:27:51;;;;;;;8.55;1.42;;;;;;;12.26;69.78;100235.59;5046987;28;20549;-48
2023/07/03 02:30:18;;;;;;;12.65;2.05;;;;;;;12.31;69.72;100238.06;5053659;28;20049;-44
2023/07/03 02:32:45;;;;;;;5.05;1.20;;;;;;;12.35;69.70;100235.34;5053049;28;20056;-44
2023/07/03 02:35:12;;;;;;;11.82;1.58;;;;;;;12.36;69.81;100225.88;5052444;28;20033;-44
2023/07/03 02:37:38;;;;;;;11.02;3.42;;;;;;;12.37;69.75;100222.72;5053370;28;20044;-49
2023/07/03 02:40:10;;;;;;;8.65;2.08;;;;;;;12.37;70.02;100219.94;5051470;28;20048;-46
2023/07/03 02:42:37;;;;;;;7.43;2.00;;;;;;;12.41;69.91;100220.00;5033604;28;20037;-44
2023/07/03 02:45:06;;;;;;;9.25;1.55;;;;;;;12.38;70.04;100209.63;5043179;28;20049;-45
2023/07/03 02:47:37;;;;;;;7.18;1.50;;;;;;;12.38;70.47;100204.09;5053391;28;20052;-44
2023/07/03 02:50:06;;;;;;;9.70;1.70;;;;;;;12.38;69.95;100207.66;5051817;28;20041;-44
2023/07/03 02:52:33;;;;;;;8.35;1.80;;;;;;;12.37;70.19;100194.94;5051462;28;20469;-46
2023/07/03 02:55:00;;;;;;;5.72;1.85;;;;;;;12.39;70.39;100194.59;5052618;28;20045;-45
2023/07/03 02:57:28;;;;;;;11.00;3.72;;;;;;;12.41;70.40;100190.28;5051830;28;20049;-47
2023/07/03 02:59:55;;;;;;;7.82;1.95;;;;;;;12.42;70.33;100188.28;5051829;28;20049;-48
2023/07/03 03:02:21;;;;;;;7.72;2.05;;;;;;;12.45;70.55;100177.25;5056609;22;20064;-46
2023/07/03 03:04:49;;;;;;;11.60;1.48;;;;;;;12.48;70.51;100175.69;5033545;28;20054;-47
2023/07/03 03:07:15;;;;;;;10.68;1.88;;;;;;;12.51;70.39;100175.75;5030594;28;20073;-47
2023/07/03 03:09:42;;;;;;;7.95;1.23;;;;;;;12.51;70.50;100181.31;5032515;28;20049;-46
2023/07/03 03:12:09;;;;;;;9.13;1.55;;;;;;;12.53;70.54;100173.41;5032541;28;20052;-45
2023/07/03 03:14:36;;;;;;;11.25;2.47;;;;;;;12.51;70.55;100161.06;5032597;28;20047;-46
2023/07/03 03:17:04;;;;;;;5.07;2.45;;;;;;;12.50;70.59;100157.50;5032450;28;20041;-46
2023/07/03 03:19:31;;;;;;;8.13;2.08;;;;;;;12.49;70.64;100161.47;5032795;28;20057;-45
2023/07/03 03:21:58;;;;;;;12.63;2.42;;;;;;;12.42;70.81;100154.97;5032579;28;20053;-46
2023/07/03 03:24:26;;;;;;;8.70;1.55;;;;;;;12.33;70.97;100149.69;5013362;28;20049;-46
2023/07/03 03:26:53;;;;;;;6.63;1.30;;;;;;;12.26;71.33;100151.56;5031259;28;20041;-45
2023/07/03 03:29:19;;;;;;;5.53;1.35;;;;;;;12.24;71.32;100135.25;5027982;28;20052;-46
2023/07/03 03:31:46;;;;;;;7.85;1.50;;;;;;;12.23;71.59;100137.22;5014673;28;20497;-45
2023/07/03 03:34:13;;;;;;;5.65;1.38;;;;;;;12.19;71.47;100132.78;5032235;28;20053;-47
2023/07/03 03:36:40;;;;;;;7.78;3.58;;;;;;;12.10;71.69;100146.09;5032125;28;20057;-46
2023/07/03 03:39:07;;;;;;;10.18;2.50;;;;;;;12.05;71.83;100138.09;5032637;28;20041;-46
2023/07/03 03:41:34;;;;;;;5.95;1.30;;;;;;;12.08;72.12;100135.38;5031794;28;20438;-46
2023/07/03 03:44:01;;;;;;;9.60;2.10;;;;;;;12.14;72.14;100127.56;5029683;28;20073;-46
2023/07/03 03:46:27;;;;;;;6.43;1.50;;;;;;;12.14;72.32;100128.38;5031711;28;20506;-46
2023/07/03 03:48:54;;;;;;;9.23;1.58;;;;;;;12.16;72.43;100130.75;5031878;28;20081;-46
2023/07/03 03:51:21;;;;;;;8.52;1.75;;;;;;;12.15;72.76;100118.06;5013741;28;20041;-46
2023/07/03 03:53:48;;;;;;;11.43;2.35;;;;;;;12.20;72.67;100109.44;5031853;28;20049;-45
2023/07/03 03:56:15;;;;;;;10.65;3.55;;;;;;;12.25;72.67;100116.63;5031967;28;20128;-46
2023/07/03 03:58:42;;;;;;;10.98;1.75;;;;;;;12.28;72.79;100105.59;5030707;28;20046;-45
2023/07/03 04:01:09;;;;;;;11.00;1.58;;;;;;;12.28;72.69;100100.03;5031076;28;20664;-46
2023/07/03 04:03:35;;;;;;;10.80;2.03;;;;;;;12.28;72.99;100099.25;5030685;28;20491;-45
2023/07/03 04:06:03;;;;;;;9.05;1.95;;;;;;;12.24;73.06;100088.06;5027485;28;20096;-46
2023/07/03 04:08:30;;;;;;;10.57;1.75;;;;;;;12.22;73.34;100076.56;5031175;28;20049;-46
2023/07/03 04:10:57;;;;;;;6.55;1.40;;;;;;;12.26;73.43;100085.72;5033923;28;20041;-46
2023/07/03 04:13:24;;;;;;;8.23;1.88;;;;;;;12.28;73.37;100083.41;5037305;28;20046;-46
2023/07/03 04:15:51;;;;;;;10.90;1.45;;;;;;;12.29;73.31;100079.44;5031058;28;20479;-45
2023/07/03 04:18:20;;;;;;;13.98;2.70;;;;;;;12.28;73.43;100077.03;5031430;28;20056;-47
2023/07/03 04:20:47;;;;;;;7.97;1.65;;;;;;;12.24;73.57;100079.75;5031126;28;20041;-46
2023/07/03 04:23:14;;;;;;;9.93;3.50;;;;;;;12.25;73.74;100073.03;5031222;28;20060;-45
2023/07/03 04:25:44;;;;;;;9.43;1.50;;;;;;;12.26;73.72;100080.16;5031450;28;20088;-46
2023/07/03 04:28:12;;;;;;;8.15;1.75;;;;;;;12.27;73.76;100064.31;5029987;28;20049;-46
2023/07/03 04:30:39;;;;;;;8.70;1.70;;;;;;;12.25;73.69;100063.91;5032198;28;20041;-45
2023/07/03 04:33:06;;;;;;;9.60;1.55;;;;;;;12.27;73.73;100062.34;5030939;28;20052;-45
2023/07/03 04:35:33;;;;;;;9.68;1.40;;;;;;;12.31;73.75;100071.53;5031107;28;20045;-46
2023/07/03 04:38:01;;;;;;;10.30;1.50;;;;;;;12.36;73.79;100073.19;5031051;28;20049;-45
2023/07/03 04:40:28;;;;;;;10.55;3.00;;;;;;;12.34;73.85;100070.78;5031032;28;20099;-46
2023/07/03 04:42:57;;;;;;;7.35;1.35;;;;;;;12.28;74.17;100072.28;5013277;28;20442;-46
2023/07/03 04:45:25;;;;;;;10.63;2.78;;;;;;;12.28;74.26;100069.53;5030952;28;20442;-46
2023/07/03 04:47:52;;;;;;;10.23;2.10;;;;;;;12.26;74.38;100063.50;5031385;28;20072;-45
2023/07/03 04:50:24;;;;;;;3.17;1.25;;;;;;;12.25;74.50;100070.25;5030784;28;20049;-45
2023/07/03 04:52:52;;;;;;;6.93;1.65;;;;;;;12.25;74.71;100069.44;5029116;28;20045;-45
2023/07/03 04:55:22;;;;;;;6.70;1.30;;;;;;;12.23;74.68;100070.63;5031417;28;20049;-44
2023/07/03 04:57:49;;;;;;;8.57;2.17;;;;;;;12.23;75.10;100070.63;5029669;28;20513;-44
2023/07/03 05:00:18;;;;;;;7.88;1.48;;;;;;;12.28;75.22;100065.94;5031030;28;20144;-45
2023/07/03 05:02:48;;;;;;;12.47;2.23;;;;;;;12.29;75.36;100057.22;5030776;28;20050;-44
2023/07/03 05:05:16;;;;;;;5.38;0.95;;;;;;;12.29;75.50;100061.97;5028885;28;20329;-45
2023/07/03 05:07:44;;;;;;;9.75;2.58;;;;;;;12.22;75.73;100065.44;5030906;28;20037;-46
2023/07/03 05:10:14;;;;;;;8.18;2.15;;;;;;;12.16;76.01;100059.41;5009948;28;20080;-46
2023/07/03 05:12:41;;;;;;;5.68;1.02;;;;;;;12.16;76.19;100058.59;5032322;28;20537;-44
2023/07/03 05:15:10;;;;;;;5.47;1.73;;;;;;;12.15;76.47;100057.78;5037131;28;20057;-45
2023/07/03 05:17:38;;;;;;;3.80;1.80;;;;;;;12.13;76.72;100051.81;5021205;28;20081;-44
2023/07/03 05:20:12;;;;;;;9.27;1.50;;;;;;;12.13;76.85;100043.50;5035050;28;20045;-46
2023/07/03 05:22:40;;;;;;;7.65;1.90;;;;;;;12.18;77.12;100045.97;5033110;28;20076;-46
2023/07/03 05:25:09;;;;;;;6.35;2.08;;;;;;;12.20;77.36;100042.81;5033421;28;20056;-45
2023/07/03 05:27:36;;;;;;;12.43;3.15;;;;;;;12.20;77.57;100048.38;5031422;28;20045;-45
2023/07/03 05:30:05;;;;;;;9.20;1.30;;;;;;;12.22;77.54;100037.69;5038762;28;20041;-45
2023/07/03 05:32:32;;;;;;;6.90;1.40;;;;;;;12.25;77.55;100041.69;5034724;28;20045;-50
2023/07/03 05:35:01;;;;;;;11.90;1.73;;;;;;;12.20;77.85;100037.28;5032986;28;20041;-45
2023/07/03 05:37:30;;;;;;;7.93;1.75;;;;;;;12.19;77.98;100042.03;5036634;28;20128;-44
2023/07/03 05:39:58;;;;;;;6.35;1.48;;;;;;;12.14;78.20;100027.66;5033967;28;20041;-45
2023/07/03 05:42:25;;;;;;;11.48;2.05;;;;;;;12.16;78.43;100030.84;5034257;28;20049;-45
2023/07/03 05:44:52;;;;;;;9.82;1.75;;;;;;;12.14;78.74;100033.22;5034103;28;20041;-45
2023/07/03 05:47:19;;;;;;;13.98;3.28;;;;;;;12.15;79.02;100016.19;5034535;28;20064;-45
2023/07/03 05:49:48;;;;;;;5.95;1.98;;;;;;;12.16;79.12;100019.75;5033691;28;20045;-44
2023/07/03 05:52:15;;;;;;;8.70;1.75;;;;;;;12.19;79.27;100005.13;5047551;28;20422;-45
2023/07/03 05:54:42;;;;;;;7.68;1.60;;;;;;;12.20;79.41;100003.97;5034688;28;20060;-45
2023/07/03 05:57:11;;;;;;;11.63;2.10;;;;;;;12.20;79.53;100009.53;5032307;28;20140;-52
2023/07/03 05:59:40;;;;;;;8.45;1.55;;;;;;;12.19;79.65;100008.72;5034300;28;20061;-44
2023/07/03 06:02:10;;;;;;;9.48;1.90;;;;;;;12.20;79.87;100003.97;5024824;28;20389;-47
2023/07/03 06:04:38;;;;;;;10.75;1.80;;;;;;;12.15;80.12;100002.31;5034053;28;20053;-45
2023/07/03 06:07:06;;;;;;;7.70;1.40;;;;;;;12.13;80.18;99998.28;5033588;28;20049;-44
2023/07/03 06:09:34;;;;;;;6.88;1.38;;;;;;;12.09;80.40;100000.22;5033875;28;20049;-44
2023/07/03 06:12:02;;;;;;;5.00;1.50;;;;;;;12.08;80.74;99995.84;5032298;28;20403;-45
2023/07/03 06:14:31;;;;;;;5.10;1.52;;;;;;;12.09;80.94;99997.47;5031163;28;20529;-45
2023/07/03 06:16:59;;;;;;;4.55;1.70;;;;;;;12.09;81.01;99992.72;5029263;28;20091;-45
2023/07/03 06:19:27;;;;;;;6.30;1.60;;;;;;;12.07;81.13;99988.72;5010155;28;20060;-45
2023/07/03 06:21:54;;;;;;;2.90;1.10;;;;;;;12.07;81.30;99983.16;5029976;28;20053;-45
2023/07/03 06:24:22;;;;;;;6.32;1.00;;;;;;;12.08;81.61;99982.78;5033115;28;20443;-47
2023/07/03 06:26:50;;;;;;;4.78;1.77;;;;;;;12.10;81.56;99990.72;5033452;28;20488;-45
2023/07/03 06:29:17;;;;;;;4.85;1.45;;;;;;;12.12;81.76;99985.63;5027935;28;20124;-45
2023/07/03 06:31:44;;;;;;;3.35;1.70;;;;;;;12.14;81.92;99981.28;5031322;28;20042;-45
2023/07/03 06:34:11;;;;;;;6.00;1.58;;;;;;;12.13;81.97;99989.97;5033254;28;20046;-45
2023/07/03 06:36:38;;;;;;;5.13;1.60;;;;;;;12.16;82.07;99989.22;5031925;28;20069;-45
2023/07/03 06:39:05;;;;;;;4.25;1.35;;;;;;;12.20;82.19;99993.66;5027434;28;20125;-44
2023/07/03 06:41:34;;;;;;;4.68;1.25;;;;;;;12.22;82.31;99979.41;5032625;28;20123;-45
2023/07/03 06:44:03;;;;;;;9.55;1.23;;;;;;;12.26;82.33;99987.81;5032777;28;20127;-45
2023/07/03 06:46:30;;;;;;;8.23;1.63;;;;;;;12.22;82.37;99984.97;5033481;28;20046;-45
2023/07/03 06:48:57;;;;;;;5.55;1.50;;;;;;;12.24;82.28;99985.38;5032934;28;20506;-45
2023/07/03 06:51:25;;;;;;;5.30;0.98;;;;;;;12.22;82.47;99984.97;5032832;28;20298;-46
2023/07/03 06:53:51;;;;;;;4.10;1.05;;;;;;;12.23;82.78;99985.78;5033313;28;20403;-45
2023/07/03 06:56:20;;;;;;;3.85;1.00;;;;;;;12.28;83.00;99997.34;5032763;28;20049;-44
2023/07/03 06:58:48;;;;;;;7.88;1.30;;;;;;;12.36;82.84;99992.69;5024775;28;20080;-47
2023/07/03 07:01:16;;;;;;;3.78;1.98;;;;;;;12.39;82.92;99989.19;5031914;28;20462;-45
2023/07/03 07:03:43;;;;;;;6.20;2.20;;;;;;;12.41;82.85;99993.19;5033577;28;20041;-46
2023/07/03 07:06:19;;;;;;;9.00;1.75;;;;;;;12.42;82.96;99991.97;5025867;28;20518;-48
2023/07/03 07:08:46;;;;;;;3.15;1.45;;;;;;;12.45;82.99;99994.00;5032411;28;20128;-46
2023/07/03 07:11:16;;;;;;;8.15;2.05;;;;;;;12.54;83.19;99991.78;5027131;28;20449;-42
2023/07/03 07:13:46;;;;;;;14.80;3.97;;;;;;;12.59;83.11;99982.31;5026038;28;20136;-43
2023/07/03 07:16:18;;;;;;;5.90;1.70;;;;;;;12.65;83.09;99987.16;5032867;28;20049;-45
2023/07/03 07:18:48;;;;;;;5.88;1.60;;;;;;;12.73;83.15;99972.16;5027917;28;20099;-45
2023/07/03 07:21:15;;;;;;;4.35;1.90;;;;;;;12.82;83.14;99986.56;5027123;28;20041;-43
2023/07/03 07:23:42;;;;;;;11.32;2.33;;;;;;;12.94;83.52;99981.94;5020555;28;20050;-43
2023/07/03 07:26:08;;;;;;;4.18;1.73;;;;;;;13.04;83.21;99987.63;5028082;28;20483;-45
2023/07/03 07:28:35;;;;;;;7.85;1.90;;;;;;;13.06;83.08;99990.81;5021658;28;20046;-44
2023/07/03 07:31:02;;;;;;;6.22;1.60;;;;;;;13.09;83.12;99986.50;5032380;28;20038;-42
2023/07/03 07:33:29;;;;;;;7.32;1.95;;;;;;;13.14;83.21;99994.50;5027947;28;20056;-42
2023/07/03 07:35:56;;;;;;;6.20;1.73;;;;;;;13.24;83.47;99986.28;5029768;28;20585;-42
2023/07/03 07:38:22;;;;;;;5.75;1.35;;;;;;;13.35;83.32;99987.19;5030249;28;20075;-42
2023/07/03 07:40:59;;;;;;;5.03;1.60;;;;;;;13.48;83.06;99984.91;5025904;28;20096;-41
2023/07/03 07:43:26;;;;;;;6.43;1.85;;;;;;;13.58;82.88;99989.00;5030419;28;20080;-42
2023/07/03 07:45:53;;;;;;;7.28;1.98;;;;;;;13.64;82.78;99988.25;5030605;28;20491;-44
2023/07/03 07:48:20;;;;;;;4.47;1.50;;;;;;;13.72;82.80;99995.47;5031593;28;20057;-42
2023/07/03 07:50:47;;;;;;;4.80;1.73;;;;;;;13.79;82.78;100001.06;5031785;28;20048;-42
2023/07/03 07:53:14;;;;;;;6.05;1.60;;;;;;;13.85;82.43;99995.97;5035330;28;20108;-41
2023/07/03 07:55:41;;;;;;;3.85;1.45;;;;;;;13.99;82.58;100005.25;5029195;28;20049;-42
2023/07/03 07:58:07;;;;;;;1.63;1.15;;;;;;;14.10;82.32;99998.94;5031715;28;20483;-45
2023/07/03 08:00:34;;;;;;;3.83;1.35;;;;;;;14.22;82.17;99996.63;5031968;28;20045;-42
2023/07/03 08:03:02;;;;;;;6.82;1.42;;;;;;;14.33;81.81;100002.31;5029893;28;20041;-42
2023/07/03 08:05:32;;;;;;;5.85;1.20;;;;;;;14.39;81.94;100006.34;5030315;28;20045;-43
2023/07/03 08:07:59;;;;;;;3.53;1.27;;;;;;;14.42;81.68;100011.13;4989617;28;20688;-47
2023/07/03 08:10:26;;;;;;;2.47;1.13;;;;;;;14.50;81.66;100008.00;5024765;28;20142;-43
2023/07/03 08:12:53;;;;;;;5.05;1.23;;;;;;;14.60;81.34;100012.03;5031866;28;20052;-43
2023/07/03 08:15:20;;;;;;;4.55;1.23;;;;;;;14.77;81.43;100016.91;5031401;28;20049;-42
2023/07/03 08:17:46;;;;;;;4.88;0.95;;;;;;;14.90;80.92;100015.38;5029207;28;20053;-43
2023/07/03 08:20:13;;;;;;;4.63;1.50;;;;;;;14.88;80.45;100026.09;5010801;28;20046;-44
2023/07/03 08:22:40;;;;;;;4.10;0.85;;;;;;;14.82;80.29;100024.88;5020845;28;20049;-44
2023/07/03 08:25:07;;;;;;;2.67;0.93;;;;;;;14.73;80.42;100020.84;5028252;28;20056;-43
2023/07/03 08:27:34;;;;;;;3.95;0.82;;;;;;;14.70;80.31;100018.81;5026213;28;20803;-43
2023/07/03 08:30:06;;;;;;;4.70;1.45;;;;;;;14.70;80.45;100022.41;5031512;28;20095;-43
2023/07/03 08:32:33;;;;;;;3.42;1.10;;;;;;;14.85;80.25;100018.50;5031304;28;20136;-44
2023/07/03 08:35:01;;;;;;;3.92;1.05;;;;;;;14.98;79.78;100025.34;5031092;28;20475;-45
2023/07/03 08:37:30;;;;;;;2.50;0.98;;;;;;;14.98;79.41;100022.56;5029500;28;20041;-43
2023/07/03 08:39:57;;;;;;;3.25;0.80;;;;;;;15.03;79.33;100038.09;5031183;28;20565;-44
2023/07/03 08:42:49;;;;;;;4.35;0.88;;;;;;;14.96;79.25;100030.50;5031006;28;20042;-45
2023/07/03 08:45:17;;;;;;;1.48;0.65;;;;;;;14.84;79.07;100044.00;5031451;28;20053;-43
2023/07/03 08:47:46;;;;;;;2.08;0.70;;;;;;;14.67;78.84;100042.69;5012874;28;20472;-43
2023/07/03 08:50:17;;;;;;;3.38;0.70;;;;;;;14.81;79.46;100045.56;5029593;28;20077;-44
2023/07/03 08:53:03;;;;;;;1.77;0.70;;;;;;;14.92;78.91;100040.84;5030437;28;20463;-43
2023/07/03 08:55:37;;;;;;;3.05;0.70;;;;;;;14.96;78.69;100050.00;5024358;28;20041;-46
2023/07/03 08:58:06;;;;;;;2.30;0.60;;;;;;;15.60;79.08;100053.84;5029782;28;20495;-44
2023/07/03 09:00:41;;;;;;;2.28;0.70;;;;;;;16.61;77.19;100050.66;5013647;28;20053;-44
2023/07/03 09:03:30;;;;;;;4.00;0.85;;;;;;;17.30;75.29;100048.03;5031264;28;20045;-44
2023/07/03 09:06:11;;;;;;;3.45;1.00;;;;;;;17.45;74.64;100055.94;5031069;28;20044;-47
2023/07/03 09:08:57;;;;;;;1.38;0.43;;;;;;;18.08;74.54;100056.75;5030809;28;20053;-45
2023/07/03 09:11:28;;;;;;;4.07;0.82;;;;;;;19.10;72.62;100058.53;5030881;28;20057;-43
2023/07/03 09:14:00;;;;;;;5.05;0.60;;;;;;;19.49;70.91;100065.69;5029208;28;20510;-44
2023/07/03 09:16:27;;;;;;;3.75;0.55;;;;;;;19.12;70.07;100060.91;5030732;28;20069;-39
2023/07/03 09:19:03;;;;;;;2.90;0.60;;;;;;;18.77;70.47;100060.13;5031124;28;20495;-45
2023/07/03 09:21:32;;;;;;;1.85;0.57;;;;;;;19.03;68.88;100064.25;5026185;28;20407;-44
2023/07/03 09:24:17;;;;;;;1.90;0.55;;;;;;;18.99;68.07;100060.69;5026692;28;20042;-44
2023/07/03 09:26:56;;;;;;;2.63;0.50;;;;;;;19.61;67.27;100065.94;5030677;28;20045;-44
2023/07/03 09:29:25;;;;;;;2.00;0.70;;;;;;;20.15;64.67;100068.72;5030666;28;20045;-44
2023/07/03 09:31:55;;;;;;;3.20;0.43;;;;;;;20.29;62.88;100066.50;5030619;28;20045;-46
2023/07/03 09:34:22;;;;;;;3.45;1.40;;;;;;;19.88;62.76;100071.56;5030889;28;20099;-44
2023/07/03 09:37:01;;;;;;;2.85;0.73;;;;;;;20.38;62.58;100074.38;5030522;28;20071;-45
2023/07/03 09:39:31;;;;;;;4.65;0.93;;;;;;;21.22;60.59;100067.16;5030850;28;20057;-44
2023/07/03 09:42:07;;;;;;;2.03;0.52;;;;;;;21.99;58.69;100077.97;5031024;28;20036;-48
2023/07/03 09:44:41;;;;;;;6.20;1.27;;;;;;;22.47;57.02;100080.00;5028364;28;20045;-45
2023/07/03 09:47:41;;;;;;;4.95;0.50;;;;;;;22.78;56.10;100086.06;5030717;28;20045;-46
2023/07/03 09:50:09;;;;;;;1.30;0.55;;;;;;;23.17;53.98;100085.75;4979611;28;20716;-44
2023/07/03 09:52:46;;;;;;;0.65;0.40;;;;;;;23.54;53.17;100082.28;5030852;28;20152;-45
2023/07/03 09:55:34;;;;;;;1.45;0.75;;;;;;;23.61;51.29;100081.28;5030599;28;20478;-45
2023/07/03 09:58:13;;;;;;;6.43;0.75;;;;;;;23.64;50.74;100081.16;5012583;28;20095;-46
2023/07/03 10:00:45;;;;;;;7.72;1.10;;;;;;;23.08;50.41;100077.16;5032703;28;20041;-45
2023/07/03 10:03:23;;;;;;;3.05;0.70;;;;;;;22.48;51.90;100075.16;5033944;28;20450;-45
2023/07/03 10:05:54;;;;;;;2.28;0.55;;;;;;;22.80;51.17;100070.25;5033414;28;20095;-44
2023/07/03 10:08:27;;;;;;;4.22;0.90;;;;;;;22.68;51.01;100071.00;5034077;28;20045;-44
2023/07/03 10:10:59;;;;;;;1.70;0.57;;;;;;;22.87;50.57;100060.81;5034625;28;20084;-44
2023/07/03 10:13:35;;;;;;;2.88;0.50;;;;;;;22.50;50.64;100075.50;5031795;28;20045;-45
2023/07/03 10:16:05;;;;;;;7.57;1.60;;;;;;;22.72;50.11;100076.53;5031289;28;20486;-44
2023/07/03 10:18:35;;;;;;;1.95;0.60;;;;;;;22.86;49.18;100076.97;5031994;28;20060;-45
2023/07/03 10:21:05;;;;;;;5.30;0.70;;;;;;;23.06;48.61;100073.19;5033744;28;20395;-45
2023/07/03 10:23:37;;;;;;;1.75;0.63;;;;;;;23.17;47.89;100071.66;5030512;28;20041;-45
2023/07/03 10:26:10;;;;;;;0.88;0.50;;;;;;;22.51;48.11;100077.06;5034069;28;20049;-45
2023/07/03 10:28:42;;;;;;;2.60;0.80;;;;;;;21.65;49.48;100069.88;5015630;28;20072;-45
2023/07/03 10:31:20;;;;;;;1.85;0.60;;;;;;;20.92;50.74;100064.53;5016101;28;20049;-45
2023/07/03 10:33:49;;;;;;;4.78;0.73;;;;;;;20.47;51.44;100078.22;5032551;28;20076;-48
2023/07/03 10:36:25;;;;;;;0.75;0.50;;;;;;;20.18;51.39;100065.03;4995844;28;20058;-46
2023/07/03 10:38:59;;;;;;;1.15;0.60;;;;;;;20.33;51.43;100069.25;4995749;28;20046;-45
2023/07/03 10:41:35;;;;;;;4.30;1.08;;;;;;;20.30;50.95;100078.53;4995885;28;20410;-48
2023/07/03 10:44:15;;;;;;;2.20;0.73;;;;;;;20.08;51.59;100066.00;4996251;28;21110;-46
2023/07/03 10:46:57;;;;;;;3.95;0.65;;;;;;;20.09;51.87;100062.00;4996623;28;21374;-46
2023/07/03 10:49:29;;;;;;;;;;;;;;;20.05;52.28;100068.47;4995471;28;20046;-44
2023/07/03 10:52:27;;;;;;;2.13;0.70;;;;;;;20.07;52.37;100061.63;4995091;28;19943;-45
2023/07/03 10:55:03;;;;;;;2.55;1.20;;;;;;;20.26;52.07;100060.91;4996891;28;20049;-48
2023/07/03 10:57:45;;;;;;;2.35;1.15;;;;;;;20.32;51.37;100062.81;4996617;28;20053;-47
2023/07/03 11:00:22;;;;;;;1.65;0.47;;;;;;;20.38;51.08;100065.94;4996530;28;20737;-48
2023/07/03 11:03:32;;;;;;;4.45;2.45;;;;;;;20.37;51.29;100072.78;4994597;28;20049;-47
2023/07/03 11:06:05;;;;;;;3.10;0.82;;;;;;;20.49;51.22;100078.56;4994744;28;20062;-46
2023/07/03 11:08:53;;;;;;;1.30;0.63;;;;;;;20.52;51.40;100071.31;5002398;28;20037;-44
2023/07/03 11:11:49;;;;;;;2.25;1.00;;;;;;;20.43;51.55;100071.06;5021247;28;20115;-45
2023/07/03 11:14:20;;;;;;;2.17;0.80;;;;;;;20.26;51.17;100067.34;5030944;28;20040;-45
2023/07/03 11:17:12;;;;;;;2.15;0.85;;;;;;;20.18;50.88;100063.03;5033132;28;20056;-44
2023/07/03 11:20:06;;;;;;;2.75;0.65;;;;;;;20.09;51.40;100067.63;5028940;28;20096;-45
2023/07/03 11:22:37;;;;;;;2.08;0.57;;;;;;;19.86;51.50;100060.72;5032730;28;20514;-44
2023/07/03 11:25:24;;;;;;;3.92;0.73;;;;;;;19.55;51.20;100061.19;5032452;28;20045;-46
2023/07/03 11:28:08;;;;;;;2.08;1.08;;;;;;;19.53;51.50;100058.81;5032575;28;20410;-44
2023/07/03 11:30:37;;;;;;;2.72;0.68;;;;;;;19.55;51.53;100062.00;5031624;28;20045;-45
2023/07/03 11:33:05;;;;;;;0.82;0.60;;;;;;;19.51;51.49;100044.41;5027267;28;20397;-50
2023/07/03 11:35:32;;;;;;;4.60;2.05;;;;;;;19.46;51.91;100052.50;5032143;28;20055;-48
2023/07/03 11:38:05;;;;;;;2.80;0.68;;;;;;;19.30;51.89;100055.91;5032143;28;20056;-44